Terminal Aerodrome Forecast
Issued by NWS North Platte, NE

Home | Current Version | Previous Version | Text Only | Print | Product List | Glossary On
Versions: 1 2 3 4 5 6 7 8 9 10 11 12 13 14 15 16 17 18 19 20 21 22 23 24 25 26
000
FTUS43 KLBF 171100
TAFLBF
TAF
KLBF 171120Z 1712/1812 VRB02KT 1/4SM FG VV001
      TEMPO 1712/1714 1/2SM FG OVC003
     FM171400 VRB02KT 3SM BR SCT003 BKN120
     FM171500 VRB02KT P6SM SCT120
     FM171900 12007KT P6SM SCT250
     FM180900 12005KT 1 1/2SM -DZ BR OVC004=

USA.gov is the U.S. government's official web portal to all federal, state and local government web resources and services.